createdAt,value
2016-08-23T14:44:06.959Z,145
2016-08-23T14:45:08.853Z,145
2016-08-23T14:46:08.323Z,150
2016-08-23T14:47:08.135Z,150
2016-08-23T14:48:07.453Z,150
2016-08-23T14:49:08.447Z,150
2016-08-23T14:50:07.285Z,150
2016-08-23T14:51:07.871Z,150
2016-08-23T14:52:07.922Z,150
2016-08-23T14:53:05.893Z,150
2016-08-23T14:54:06.921Z,155
2016-08-23T14:55:06.677Z,155
2016-08-23T14:56:06.281Z,155
2016-08-23T14:57:06.894Z,155
2016-08-23T14:58:07.566Z,155
2016-08-23T14:59:06.818Z,160
2016-08-23T15:00:07.040Z,160
2016-08-23T15:01:07.200Z,160
2016-08-23T15:02:06.944Z,160
2016-08-23T15:03:05.880Z,165
2016-08-23T15:04:05.745Z,160
2016-08-23T15:05:07.482Z,160
2016-08-23T15:06:07.454Z,160
2016-08-23T15:07:06.549Z,165
2016-08-23T15:08:05.802Z,165
2016-08-23T15:09:07.162Z,165
2016-08-23T15:10:05.207Z,165
2016-08-23T15:11:05.682Z,165
2016-08-23T15:12:07.633Z,170
2016-08-23T15:13:06.315Z,170
2016-08-23T15:14:07.862Z,170
2016-08-23T15:15:05.897Z,170
2016-08-23T15:16:05.657Z,170
2016-08-23T15:17:04.738Z,170
2016-08-23T15:18:07.198Z,165
2016-08-23T15:19:04.642Z,165
2016-08-23T15:20:06.041Z,170
2016-08-23T15:21:05.455Z,170
2016-08-23T15:22:06.614Z,170
2016-08-23T15:23:05.204Z,170
2016-08-23T15:24:05.366Z,170
2016-08-23T15:25:06.064Z,170
2016-08-23T15:26:07.383Z,170
2016-08-23T15:27:06.171Z,170
2016-08-23T15:28:06.165Z,170
2016-08-23T15:29:04.483Z,170
2016-08-23T15:30:06.336Z,170
2016-08-23T15:31:04.967Z,170
2016-08-23T15:32:06.254Z,170
2016-08-23T15:33:06.234Z,175
2016-08-23T15:34:06.416Z,170
2016-08-23T15:35:05.900Z,165
2016-08-23T15:36:05.678Z,165
2016-08-23T15:37:06.289Z,165
2016-08-23T15:38:06.269Z,160
2016-08-23T15:39:03.914Z,160
2016-08-23T15:40:05.443Z,160
2016-08-23T15:41:06.285Z,160
2016-08-23T15:42:06.106Z,160
2016-08-23T15:43:04.873Z,160
2016-08-23T15:44:05.303Z,155
2016-08-23T15:45:05.311Z,155
2016-08-23T15:46:05.232Z,155
2016-08-23T15:47:04.347Z,155
2016-08-23T15:48:05.846Z,150
2016-08-23T15:49:04.210Z,150
2016-08-23T15:50:04.172Z,155
2016-08-23T15:51:04.844Z,200
2016-08-23T15:52:04.508Z,290
2016-08-23T15:53:05.376Z,340
2016-08-23T15:54:03.454Z,345
2016-08-23T15:55:05.483Z,340
2016-08-23T15:56:06.560Z,345
2016-08-23T15:57:03.894Z,350
2016-08-23T15:58:06.460Z,340
2016-08-23T15:59:04.533Z,340
2016-08-23T16:00:04.974Z,340
2016-08-23T16:01:04.901Z,345
2016-08-23T16:02:04.746Z,345
2016-08-23T16:03:06.284Z,340
2016-08-23T16:04:03.091Z,350
2016-08-23T16:05:05.414Z,355
2016-08-23T16:06:04.504Z,355
2016-08-23T16:07:05.166Z,365
2016-08-23T16:08:04.675Z,365
2016-08-23T16:09:05.051Z,365
2016-08-23T16:10:03.451Z,360
2016-08-23T16:11:04.883Z,350
2016-08-23T16:12:03.593Z,345
2016-08-23T16:13:04.224Z,295
2016-08-23T16:14:02.555Z,195
2016-08-23T16:15:04.862Z,95
2016-08-23T16:16:02.604Z,60
2016-08-23T16:17:03.975Z,55
2016-08-23T16:18:03.840Z,55
2016-08-23T16:19:03.795Z,50
2016-08-23T16:20:03.734Z,50
2016-08-23T16:21:03.225Z,50
2016-08-23T16:22:03.395Z,50
2016-08-23T16:23:03.034Z,45
2016-08-23T16:24:04.383Z,45
2016-08-23T16:25:03.588Z,45
2016-08-23T16:26:03.750Z,45
2016-08-23T16:27:03.806Z,45
2016-08-23T16:28:03.484Z,40
2016-08-23T16:29:02.802Z,40
2016-08-23T16:30:02.405Z,40
2016-08-23T16:31:03.818Z,40
2016-08-23T16:32:03.336Z,40
2016-08-23T16:33:03.304Z,40
2016-08-23T16:34:02.726Z,40
2016-08-23T16:35:03.454Z,40
2016-08-23T16:36:03.330Z,40
2016-08-23T16:37:02.414Z,40
2016-08-23T16:38:03.807Z,40
2016-08-23T16:39:01.760Z,40
2016-08-23T16:40:03.274Z,35
2016-08-23T16:41:03.160Z,35
2016-08-23T16:42:03.718Z,35
2016-08-23T16:43:03.111Z,35
2016-08-23T16:44:02.855Z,35
2016-08-23T16:45:02.323Z,35
2016-08-23T16:46:03.888Z,35
2016-08-23T16:47:02.076Z,35
2016-08-23T16:48:02.790Z,35
2016-08-23T16:49:02.658Z,35
2016-08-23T16:50:02.731Z,30
2016-08-23T16:51:02.590Z,30
2016-08-23T16:52:01.874Z,30
2016-08-23T16:53:01.405Z,30
2016-08-23T16:54:02.463Z,30
2016-08-23T16:55:02.535Z,30
2016-08-23T16:56:03.289Z,30
2016-08-23T16:57:01.659Z,30
2016-08-23T16:58:02.536Z,30
2016-08-23T16:59:01.558Z,30
2016-08-23T17:00:03.199Z,30
2016-08-23T17:01:02.232Z,30
2016-08-23T17:02:03.029Z,30
2016-08-23T17:03:03.013Z,30
2016-08-23T17:04:02.047Z,30
2016-08-23T17:05:02.254Z,25
2016-08-23T17:06:02.930Z,25
2016-08-23T17:07:02.877Z,25
2016-08-23T17:08:01.438Z,25
2016-08-23T17:09:02.069Z,25
2016-08-23T17:10:02.285Z,25
2016-08-23T17:11:01.831Z,25
2016-08-23T17:12:02.126Z,25
2016-08-23T17:13:02.142Z,25
2016-08-23T17:14:01.860Z,25
2016-08-23T17:15:02.572Z,25
2016-08-23T17:16:01.158Z,25
2016-08-23T17:17:00.502Z,25
2016-08-23T17:18:01.618Z,20
2016-08-23T17:19:01.206Z,20
2016-08-23T17:20:00.101Z,20
2016-08-23T17:21:00.703Z,20
2016-08-23T17:22:00.638Z,20
2016-08-23T17:23:01.508Z,20
2016-08-23T17:24:01.258Z,20
2016-08-23T17:25:00.098Z,20
2016-08-23T17:26:02.528Z,20
2016-08-23T17:27:01.757Z,20
2016-08-23T17:28:01.150Z,20
2016-08-23T17:29:02.727Z,20
2016-08-23T17:30:00.549Z,20
2016-08-23T17:31:01.896Z,20
2016-08-23T17:32:01.145Z,20
2016-08-23T17:32:59.490Z,20
2016-08-23T17:34:01.572Z,20
2016-08-23T17:35:00.997Z,20
2016-08-23T17:36:00.841Z,15
2016-08-23T17:37:01.450Z,15
2016-08-23T17:38:00.224Z,15
2016-08-23T17:39:01.062Z,15
2016-08-23T17:40:00.715Z,15
2016-08-23T17:41:00.988Z,15
2016-08-23T17:42:00.553Z,15
2016-08-23T17:43:00.508Z,15
2016-08-23T17:44:00.442Z,15
2016-08-23T17:44:59.744Z,15
2016-08-23T17:46:00.384Z,15
2016-08-23T17:47:00.747Z,15
2016-08-23T17:48:01.434Z,15
2016-08-23T17:48:59.574Z,15
2016-08-23T17:49:59.711Z,15
2016-08-23T17:51:01.548Z,15
2016-08-23T17:52:00.347Z,10
2016-08-23T17:53:01.004Z,10
2016-08-23T17:54:00.755Z,10
2016-08-23T17:55:00.746Z,10
2016-08-23T17:56:01.057Z,10
2016-08-23T17:57:00.937Z,10
2016-08-23T17:57:59.626Z,10
2016-08-23T17:58:59.199Z,10
2016-08-23T18:00:00.512Z,10
2016-08-23T18:01:00.028Z,10
2016-08-23T18:01:59.785Z,10
2016-08-23T18:02:59.705Z,10
2016-08-23T18:03:59.675Z,10
2016-08-23T18:05:00.408Z,10
2016-08-23T18:05:59.084Z,10
2016-08-23T18:06:59.655Z,10
2016-08-23T18:07:59.468Z,10
2016-08-23T18:09:00.654Z,5
2016-08-23T18:10:00.720Z,5
2016-08-23T18:11:00.663Z,5
2016-08-23T18:11:59.914Z,5
2016-08-23T18:13:00.206Z,5
2016-08-23T18:13:59.688Z,5
2016-08-23T18:14:58.491Z,5
2016-08-23T18:16:00.029Z,5
2016-08-23T18:16:59.854Z,5
2016-08-23T18:17:59.311Z,5
2016-08-23T18:18:58.359Z,5
2016-08-23T18:19:59.029Z,5
2016-08-23T18:20:58.259Z,5
2016-08-23T18:21:59.719Z,5
2016-08-23T18:22:59.626Z,5
2016-08-23T18:23:58.932Z,5
2016-08-23T18:24:58.816Z,5
2016-08-23T18:25:58.760Z,0
2016-08-23T18:26:58.729Z,0
2016-08-23T18:27:58.892Z,0
2016-08-23T18:28:58.337Z,0
2016-08-23T18:29:58.784Z,0
2016-08-23T18:30:57.873Z,0
2016-08-23T18:31:58.770Z,0
2016-08-23T18:32:57.767Z,0
2016-08-23T18:33:57.030Z,0
2016-08-23T18:34:57.684Z,0
2016-08-23T18:35:59.236Z,0
2016-08-23T18:36:58.293Z,0
2016-08-23T18:37:58.260Z,0
2016-08-23T18:38:57.754Z,0
2016-08-23T18:39:58.992Z,0
2016-08-23T18:40:58.188Z,0
2016-08-23T18:41:57.906Z,0
2016-08-23T18:42:57.367Z,0
2016-08-23T18:43:58.019Z,0
2016-08-23T18:44:58.969Z,0
2016-08-23T18:45:58.822Z,0
2016-08-23T18:46:57.913Z,0
2016-08-23T18:47:58.559Z,0
2016-08-23T18:48:57.911Z,0
2016-08-23T18:49:57.843Z,0
2016-08-23T18:50:58.464Z,0
2016-08-23T18:51:57.734Z,0
2016-08-23T18:52:58.652Z,0
2016-08-23T18:53:56.910Z,0
2016-08-23T18:54:57.571Z,0
2016-08-23T18:55:58.238Z,0
2016-08-23T18:56:56.847Z,0
2016-08-23T18:57:56.864Z,0
2016-08-23T18:58:58.124Z,0
2016-08-23T18:59:58.516Z,0
2016-08-23T19:00:56.017Z,0
2016-08-23T19:01:58.223Z,0
2016-08-23T19:02:57.026Z,0
2016-08-23T19:03:58.210Z,0
2016-08-23T19:04:56.546Z,0
2016-08-23T19:05:56.809Z,0
2016-08-23T19:06:56.393Z,0
2016-08-23T19:07:57.268Z,0
2016-08-23T19:08:57.045Z,0
2016-08-23T19:09:57.258Z,0
2016-08-23T19:10:57.857Z,0
2016-08-23T19:11:56.887Z,0
2016-08-23T19:12:57.947Z,0
2016-08-23T19:13:56.853Z,0
2016-08-23T19:14:57.712Z,0
2016-08-23T19:15:57.621Z,0
2016-08-23T19:16:56.701Z,0
2016-08-23T19:17:57.305Z,0
2016-08-23T19:18:55.241Z,0
2016-08-23T19:19:55.842Z,0
2016-08-23T19:20:56.578Z,0
2016-08-23T19:21:55.746Z,0
2016-08-23T19:22:56.641Z,0
2016-08-23T19:23:57.288Z,0
2016-08-23T19:24:55.645Z,0
2016-08-23T19:25:56.312Z,0
2016-08-23T19:26:56.503Z,0
2016-08-23T19:27:55.525Z,0
2016-08-23T19:28:57.074Z,0
2016-08-23T19:29:56.146Z,0
2016-08-23T19:30:56.290Z,0
2016-08-23T19:31:56.771Z,0
2016-08-23T19:32:56.026Z,0
2016-08-23T19:33:55.300Z,0
2016-08-23T19:34:56.172Z,0
2016-08-23T19:35:56.785Z,0
2016-08-23T19:36:55.384Z,0
2016-08-23T19:37:56.712Z,0
2016-08-23T19:38:56.001Z,0
2016-08-23T19:39:55.754Z,0
2016-08-23T19:40:55.754Z,0
2016-08-23T19:41:55.755Z,0
2016-08-23T19:42:56.342Z,0
2016-08-23T19:43:55.653Z,0
2016-08-23T19:44:55.791Z,0
2016-08-23T19:45:55.454Z,0
2016-08-23T19:46:55.522Z,0
2016-08-23T19:47:56.298Z,0
2016-08-23T19:48:56.058Z,0
2016-08-23T19:49:54.672Z,0
2016-08-23T19:50:55.333Z,0
2016-08-23T19:51:55.247Z,0
2016-08-23T19:52:55.926Z,0
2016-08-23T19:53:55.175Z,0
2016-08-23T19:54:55.116Z,0
2016-08-23T19:55:54.591Z,0
2016-08-23T19:56:55.514Z,0
2016-08-23T19:57:55.812Z,0
2016-08-23T19:58:55.625Z,0
2016-08-23T19:59:55.934Z,0
2016-08-23T20:00:55.805Z,0
2016-08-23T20:01:55.281Z,0
2016-08-23T20:02:55.472Z,0
2016-08-23T20:03:55.530Z,0
2016-08-23T20:04:53.982Z,0
2016-08-23T20:05:54.659Z,0
2016-08-23T20:06:55.375Z,0
2016-08-23T20:07:55.275Z,0
2016-08-23T20:08:54.845Z,0
2016-08-23T20:09:54.573Z,0
2016-08-23T20:10:54.595Z,0
2016-08-23T20:11:53.796Z,0
2016-08-23T20:12:55.150Z,0
2016-08-23T20:13:55.438Z,0
2016-08-23T20:14:55.215Z,0
2016-08-23T20:15:55.249Z,0
2016-08-23T20:16:53.563Z,0
2016-08-23T20:17:55.026Z,0
2016-08-23T20:18:54.975Z,0
2016-08-23T20:19:54.159Z,0
2016-08-23T20:20:53.264Z,0
2016-08-23T20:21:53.474Z,0
2016-08-23T20:22:53.934Z,0
2016-08-23T20:23:54.113Z,0
2016-08-23T20:24:54.539Z,0
2016-08-23T20:25:53.785Z,0
2016-08-23T20:26:53.297Z,0
2016-08-23T20:27:54.106Z,0
2016-08-23T20:28:53.652Z,0
2016-08-23T20:29:54.354Z,0
2016-08-23T20:30:53.564Z,0
2016-08-23T20:31:54.247Z,0
2016-08-23T20:32:53.516Z,0
2016-08-23T20:33:54.256Z,0
2016-08-23T20:34:52.806Z,0
2016-08-23T20:35:53.431Z,0
2016-08-23T20:36:52.828Z,0
2016-08-23T20:37:53.314Z,0
2016-08-23T20:38:52.550Z,0
2016-08-23T20:39:53.621Z,0
2016-08-23T20:40:53.868Z,0
2016-08-23T20:41:54.084Z,0
2016-08-23T20:42:53.073Z,0
2016-08-23T20:43:53.724Z,0
2016-08-23T20:44:52.978Z,0
2016-08-23T20:45:52.948Z,0
2016-08-23T20:46:52.204Z,0
2016-08-23T20:47:52.153Z,0
2016-08-23T20:48:52.826Z,0
2016-08-23T20:49:53.654Z,0
2016-08-23T20:50:53.423Z,0
2016-08-23T20:51:53.408Z,0
2016-08-23T20:52:53.338Z,0
2016-08-23T20:53:52.571Z,0
2016-08-23T20:54:52.554Z,0
2016-08-23T20:55:53.420Z,0
2016-08-23T20:56:52.502Z,0
2016-08-23T20:57:52.644Z,0
2016-08-23T20:58:53.098Z,0
2016-08-23T20:59:52.538Z,0
2016-08-23T21:00:51.131Z,0
2016-08-23T21:01:52.695Z,0
2016-08-23T21:02:52.419Z,0
2016-08-23T21:03:51.465Z,0
2016-08-23T21:04:52.854Z,0
2016-08-23T21:05:52.999Z,0
2016-08-23T21:06:52.955Z,0
2016-08-23T21:07:51.509Z,0
2016-08-23T21:08:52.639Z,0
2016-08-23T21:09:51.925Z,0
2016-08-23T21:10:51.381Z,0
2016-08-23T21:11:51.823Z,0
2016-08-23T21:12:52.502Z,0
2016-08-23T21:13:51.767Z,0
2016-08-23T21:14:52.423Z,0
2016-08-23T21:15:52.383Z,0
2016-08-23T21:16:51.621Z,0
2016-08-23T21:17:52.261Z,0
2016-08-23T21:18:53.132Z,0
2016-08-23T21:19:52.204Z,0
2016-08-23T21:20:51.640Z,0
2016-08-23T21:21:51.421Z,0
2016-08-23T21:22:52.079Z,0
2016-08-23T21:23:52.315Z,0
2016-08-23T21:24:50.621Z,0
2016-08-23T21:25:51.473Z,0
2016-08-23T21:26:50.517Z,0
2016-08-23T21:27:51.171Z,0
2016-08-23T21:28:52.028Z,0
2016-08-23T21:29:51.964Z,0
2016-08-23T21:30:51.726Z,0
2016-08-23T21:31:51.425Z,0
2016-08-23T21:32:51.736Z,0
2016-08-23T21:33:51.805Z,0
2016-08-23T21:34:50.192Z,0
2016-08-23T21:35:51.071Z,0
2016-08-23T21:36:50.762Z,0
2016-08-23T21:37:51.629Z,0
2016-08-23T21:38:51.821Z,0
2016-08-23T21:39:50.847Z,0
2016-08-23T21:40:50.614Z,0
2016-08-23T21:41:51.882Z,0
2016-08-23T21:42:51.429Z,0
2016-08-23T21:43:51.156Z,0
2016-08-23T21:44:50.450Z,0
2016-08-23T21:45:50.603Z,0
2016-08-23T21:46:51.042Z,0
2016-08-23T21:47:49.818Z,0
2016-08-23T21:48:50.968Z,0
2016-08-23T21:49:49.539Z,0
2016-08-23T21:50:50.869Z,0
2016-08-23T21:51:50.357Z,0
2016-08-23T21:52:49.403Z,0
2016-08-23T21:53:49.544Z,0
2016-08-23T21:54:51.106Z,0
2016-08-23T21:55:49.299Z,0
2016-08-23T21:56:50.597Z,0
2016-08-23T21:57:49.885Z,0
2016-08-23T21:58:50.778Z,0
2016-08-23T21:59:49.408Z,0
2016-08-23T22:00:48.678Z,0
2016-08-23T22:01:49.722Z,0
2016-08-23T22:02:51.571Z,0
2016-08-23T22:03:49.616Z,0
2016-08-23T22:04:49.357Z,0
2016-08-23T22:05:50.441Z,0
2016-08-23T22:06:50.381Z,0
2016-08-23T22:07:49.473Z,0
2016-08-23T22:08:48.702Z,0
2016-08-23T22:09:49.383Z,0
2016-08-23T22:10:50.026Z,0
2016-08-23T22:11:49.983Z,0
2016-08-23T22:12:49.992Z,0
2016-08-23T22:13:50.277Z,0
2016-08-23T22:14:49.833Z,0
2016-08-23T22:15:48.393Z,0
2016-08-23T22:16:49.786Z,0
2016-08-23T22:17:49.712Z,0
2016-08-23T22:18:49.875Z,0
2016-08-23T22:19:49.135Z,0
2016-08-23T22:20:48.910Z,0
2016-08-23T22:21:49.954Z,0
2016-08-23T22:22:49.203Z,0
2016-08-23T22:23:49.162Z,0
2016-08-23T22:24:48.699Z,0
2016-08-23T22:25:49.382Z,0
2016-08-23T22:26:49.521Z,0
2016-08-23T22:27:49.277Z,0
2016-08-23T22:28:48.525Z,0
2016-08-23T22:29:49.191Z,0
2016-08-23T22:30:48.453Z,0
2016-08-23T22:31:49.115Z,0
2016-08-23T22:32:49.270Z,0
2016-08-23T22:33:49.413Z,0
2016-08-23T22:34:48.992Z,0
2016-08-23T22:35:47.536Z,0
2016-08-23T22:36:48.860Z,0
2016-08-23T22:37:48.158Z,0
2016-08-23T22:38:48.088Z,0
2016-08-23T22:39:48.247Z,0
2016-08-23T22:40:47.306Z,0
2016-08-23T22:41:48.878Z,0
2016-08-23T22:42:47.933Z,0
2016-08-23T22:43:48.094Z,0
2016-08-23T22:44:47.846Z,0
2016-08-23T22:45:48.502Z,0
2016-08-23T22:46:47.776Z,0
2016-08-23T22:47:47.124Z,0
2016-08-23T22:48:48.371Z,0
2016-08-23T22:49:47.141Z,0
2016-08-23T22:50:48.290Z,0
2016-08-23T22:51:47.815Z,0
2016-08-23T22:52:48.391Z,0
2016-08-23T22:53:47.538Z,0
2016-08-23T22:54:47.414Z,0
2016-08-23T22:55:48.061Z,0
2016-08-23T22:56:48.053Z,0
2016-08-23T22:57:46.583Z,0
2016-08-23T22:58:48.006Z,0
2016-08-23T22:59:47.192Z,0
2016-08-23T23:00:46.445Z,0
2016-08-23T23:01:47.316Z,0
2016-08-23T23:02:48.053Z,0
2016-08-23T23:03:46.524Z,0
2016-08-23T23:04:47.038Z,0
2016-08-23T23:05:47.634Z,0
2016-08-23T23:06:46.952Z,0
2016-08-23T23:07:47.066Z,0
2016-08-23T23:08:46.813Z,0
2016-08-23T23:09:47.441Z,0
2016-08-23T23:10:47.413Z,0
2016-08-23T23:11:45.974Z,0
2016-08-23T23:12:47.742Z,0
2016-08-23T23:13:47.299Z,0
2016-08-23T23:14:46.536Z,0
2016-08-23T23:15:46.221Z,0
2016-08-23T23:16:46.683Z,0
2016-08-23T23:17:46.411Z,0
2016-08-23T23:18:47.084Z,0
2016-08-23T23:19:46.341Z,0
2016-08-23T23:20:46.962Z,0
2016-08-23T23:21:46.486Z,0
2016-08-23T23:22:46.927Z,0
2016-08-23T23:23:46.853Z,0
2016-08-23T23:24:45.392Z,0
2016-08-23T23:25:46.790Z,0
2016-08-23T23:26:46.918Z,0
2016-08-23T23:27:45.964Z,0
2016-08-23T23:28:45.953Z,0
2016-08-23T23:29:45.902Z,0
2016-08-23T23:30:46.064Z,0
2016-08-23T23:31:46.000Z,0
2016-08-23T23:32:45.791Z,0
2016-08-23T23:33:46.425Z,0
2016-08-23T23:34:46.572Z,0
2016-08-23T23:35:46.343Z,0
2016-08-23T23:36:45.782Z,0
2016-08-23T23:37:46.234Z,0
2016-08-23T23:38:45.702Z,0
2016-08-23T23:39:45.454Z,0
2016-08-23T23:40:46.390Z,0
2016-08-23T23:41:45.371Z,0
2016-08-23T23:42:46.021Z,0
2016-08-23T23:43:45.885Z,0
2016-08-23T23:44:46.164Z,0
2016-08-23T23:45:45.413Z,0
2016-08-23T23:46:45.608Z,0
2016-08-23T23:47:45.790Z,0
2016-08-23T23:48:45.772Z,0
2016-08-23T23:49:45.722Z,0
2016-08-23T23:50:44.281Z,0
2016-08-23T23:51:45.140Z,0
2016-08-23T23:52:44.893Z,0
2016-08-23T23:53:44.342Z,0
2016-08-23T23:54:44.165Z,0
2016-08-23T23:55:44.844Z,0
2016-08-23T23:56:46.057Z,0
2016-08-23T23:57:45.567Z,0
2016-08-23T23:58:44.623Z,0
2016-08-23T23:59:45.301Z,0
